Time;durP1;ratioP1;P1;durP2;ratioP2;P2;SDS_P1;SDS_P2;PMS_P1;PMS_P2;Temp;Humidity;BMP_temperature;BMP_pressure;BME280_temperature;BME280_humidity;BME280_pressure;Samples;Min_cycle;Max_cycle;Signal;HPM_P1;HPM_P2
2021/01/28 00:01:12;;;;;;;3.05;1.27;;;18.40;30.70;;;;;;4412718;32;20058;-82
2021/01/28 00:03:41;;;;;;;1.40;1.30;;;18.50;30.90;;;;;;4413302;32;20128;-83
2021/01/28 00:06:09;;;;;;;1.20;1.20;;;18.50;31.30;;;;;;4409781;32;20068;-83
2021/01/28 00:08:38;;;;;;;2.75;1.40;;;18.50;31.40;;;;;;4417513;32;20070;-83
2021/01/28 00:11:06;;;;;;;1.30;1.20;;;18.40;31.40;;;;;;4421899;32;20066;-83
2021/01/28 00:13:34;;;;;;;1.35;1.25;;;18.50;30.70;;;;;;4420994;32;20046;-83
2021/01/28 00:16:02;;;;;;;3.37;1.20;;;18.30;31.60;;;;;;4416609;32;20107;-83
2021/01/28 00:18:31;;;;;;;3.25;1.45;;;18.30;31.50;;;;;;4414110;32;20054;-83
2021/01/28 00:20:59;;;;;;;2.37;1.42;;;18.20;30.80;;;;;;4415150;32;20035;-83
2021/01/28 00:23:27;;;;;;;1.67;1.20;;;18.30;31.10;;;;;;4417028;32;20505;-83
2021/01/28 00:25:55;;;;;;;2.35;1.20;;;18.30;31.20;;;;;;4417533;32;20087;-83
2021/01/28 00:28:23;;;;;;;1.50;1.40;;;18.20;31.60;;;;;;4421479;32;20416;-84
2021/01/28 00:30:53;;;;;;;3.17;1.30;;;18.30;31.00;;;;;;4414005;32;20054;-83
2021/01/28 00:33:25;;;;;;;3.65;1.40;;;18.50;30.10;;;;;;4425417;32;20099;-84
2021/01/28 00:35:56;;;;;;;1.30;1.20;;;18.70;30.60;;;;;;4416759;32;20080;-84
2021/01/28 00:38:30;;;;;;;1.80;1.37;;;18.70;31.00;;;;;;4416806;32;20114;-83
2021/01/28 00:41:00;;;;;;;2.25;1.30;;;18.80;30.10;;;;;;4423192;32;20065;-83
2021/01/28 00:43:28;;;;;;;3.22;1.37;;;18.80;30.70;;;;;;4414129;32;20043;-83
2021/01/28 00:45:57;;;;;;;1.62;1.30;;;18.90;30.00;;;;;;4418050;32;20058;-83
2021/01/28 00:48:26;;;;;;;1.48;1.37;;;18.90;30.20;;;;;;4419257;32;20061;-83
2021/01/28 00:50:57;;;;;;;1.92;1.30;;;19.00;29.90;;;;;;4412466;32;20085;-83
2021/01/28 00:53:25;;;;;;;2.78;1.30;;;19.10;29.60;;;;;;4417166;32;20061;-83
2021/01/28 00:55:53;;;;;;;2.58;1.30;;;19.10;30.70;;;;;;4417464;32;20046;-83
2021/01/28 00:58:25;;;;;;;4.65;1.40;;;18.80;30.80;;;;;;4413914;32;20442;-83
2021/01/28 01:00:54;;;;;;;7.40;2.35;;;19.30;29.60;;;;;;4412971;32;20459;-83
2021/01/28 01:03:24;;;;;;;5.72;2.92;;;18.90;39.60;;;;;;4413264;32;20303;-84
2021/01/28 01:05:53;;;;;;;6.18;2.42;;;18.50;44.30;;;;;;4422362;32;20125;-83
2021/01/28 01:08:22;;;;;;;8.40;2.45;;;18.10;44.30;;;;;;4412543;32;20093;-83
2021/01/28 01:10:58;;;;;;;3.10;1.95;;;17.80;43.80;;;;;;4415745;32;20105;-83
2021/01/28 01:13:28;;;;;;;3.50;2.10;;;17.50;49.10;;;;;;4415163;32;20062;-84
2021/01/28 01:16:01;;;;;;;5.10;2.60;;;17.30;50.50;;;;;;4399813;32;20050;-84
2021/01/28 01:18:33;;;;;;;6.28;2.47;;;17.10;53.20;;;;;;4420293;32;20114;-83
2021/01/28 01:21:05;;;;;;;6.30;2.37;;;17.10;55.10;;;;;;4420950;32;20080;-84
2021/01/28 01:23:34;;;;;;;5.90;1.40;;;17.00;53.50;;;;;;4399938;32;20425;-83
2021/01/28 01:26:03;;;;;;;3.47;1.80;;;17.10;52.30;;;;;;4412423;32;20526;-83
2021/01/28 01:28:31;;;;;;;3.33;1.50;;;17.10;50.90;;;;;;4423435;32;20058;-83
2021/01/28 01:31:00;;;;;;;1.55;1.40;;;17.20;48.00;;;;;;4416730;32;20107;-83
2021/01/28 01:33:31;;;;;;;1.75;1.50;;;17.10;47.00;;;;;;4419157;32;20080;-84
2021/01/28 01:36:00;;;;;;;1.73;1.40;;;17.20;46.60;;;;;;4413503;32;20046;-83
2021/01/28 01:38:30;;;;;;;0.80;0.73;;;17.10;47.40;;;;;;4418296;32;20372;-84
2021/01/28 01:40:58;;;;;;;2.12;1.58;;;17.00;50.60;;;;;;4413444;32;20143;-83
2021/01/28 01:43:27;;;;;;;3.10;1.70;;;17.10;48.50;;;;;;4423216;32;20063;-83
2021/01/28 01:45:59;;;;;;;3.80;1.50;;;17.40;47.40;;;;;;4423601;32;20059;-83
2021/01/28 01:48:35;;;;;;;1.80;1.50;;;17.80;46.90;;;;;;4422144;32;20104;-83
2021/01/28 01:51:06;;;;;;;1.60;1.50;;;18.00;47.40;;;;;;4420458;32;20057;-83
2021/01/28 01:53:41;;;;;;;2.12;1.75;;;18.20;46.70;;;;;;4408425;32;20078;-84
2021/01/28 01:56:21;;;;;;;2.97;2.00;;;18.20;48.20;;;;;;4410085;32;20469;-83
2021/01/28 01:59:05;;;;;;;1.92;1.75;;;18.10;49.50;;;;;;4413372;32;20096;-82
2021/01/28 02:01:43;;;;;;;2.05;1.80;;;;;;;;;;4416071;32;20109;-83
2021/01/28 02:04:28;;;;;;;4.40;2.00;;;;;;;;;;4407400;32;20055;-83
2021/01/28 02:07:15;;;;;;;2.35;2.10;;;;;;;;;;4410816;32;20077;-84
2021/01/28 02:09:46;;;;;;;2.58;2.00;;;;;;;;;;4416498;32;20077;-83
2021/01/28 02:12:15;;;;;;;3.10;2.15;;;;;;;;;;4416748;32;20505;-83
2021/01/28 02:14:47;;;;;;;3.12;2.08;;;;;;;;;;4416466;32;20063;-83
2021/01/28 02:17:17;;;;;;;2.90;2.40;;;;;;;;;;4414570;32;20058;-84
2021/01/28 02:19:50;;;;;;;5.37;2.60;;;;;;;;;;4415612;32;20063;-83
2021/01/28 02:22:28;;;;;;;3.50;2.28;;;;;;;;;;4410716;32;20424;-82
2021/01/28 02:25:05;;;;;;;2.53;2.03;;;;;;;;;;4408780;32;20104;-83
2021/01/28 02:27:34;;;;;;;2.72;2.10;;;;;;;;;;4399871;32;20065;-83
2021/01/28 02:30:06;;;;;;;2.30;2.05;;;;;;;;;;4405155;32;20046;-84
2021/01/28 02:32:35;;;;;;;2.30;2.10;;;;;;;;;;4413956;32;20445;-83
2021/01/28 02:35:10;;;;;;;2.17;1.98;;;;;;;;;;4409689;32;20162;-83
2021/01/28 02:37:38;;;;;;;2.55;2.20;;;;;;;;;;4407979;32;20086;-83
2021/01/28 02:40:07;;;;;;;2.67;2.47;;;;;;;;;;4406757;32;20142;-83
2021/01/28 02:42:39;;;;;;;2.83;2.25;;;;;;;;;;4406483;32;20086;-83
2021/01/28 02:45:08;;;;;;;3.55;2.50;;;;;;;;;;4413777;32;20089;-83
2021/01/28 02:47:53;;;;;;;2.67;2.47;;;;;;;;;;4415517;32;20385;-83
2021/01/28 02:50:23;;;;;;;4.43;2.72;;;;;;;;;;4410621;32;20129;-83
2021/01/28 02:52:55;;;;;;;3.72;2.50;;;;;;;;;;4414752;32;20085;-83
2021/01/28 02:55:25;;;;;;;3.65;2.60;;;;;;;;;;4416684;32;20113;-83
2021/01/28 02:57:54;;;;;;;2.60;2.40;;;;;;;;;;4416987;32;20247;-83
2021/01/28 03:00:28;;;;;;;3.40;2.50;;;18.50;30.80;;;;;;4416917;32;20069;-83
2021/01/28 03:02:56;;;;;;;;;;;18.50;32.60;;;;;;4417761;32;20096;-83
2021/01/28 03:05:28;;;;;;;2.35;2.15;;;18.40;32.60;;;;;;4418161;32;20030;-82
2021/01/28 03:07:56;;;;;;;3.75;2.60;;;18.50;32.70;;;;;;4415930;32;20141;-83
2021/01/28 07:20:37;;;;;;;4.97;1.77;;;;;;;;;;4529997;28;20055;-83
2021/01/28 07:23:22;;;;;;;2.83;1.10;;;;;;;;;;4213444;33;22320;-84
2021/01/28 07:25:53;;;;;;;4.07;0.90;;;;;;;;;;4220329;33;20098;-84
2021/01/28 07:28:22;;;;;;;5.25;1.05;;;;;;;;;;4215745;33;20114;-83
2021/01/28 07:30:52;;;;;;;3.30;0.90;;;;;;;;;;4216746;34;20097;-84
2021/01/28 07:33:27;;;;;;;2.72;1.00;;;;;;;;;;4219892;33;20431;-83
2021/01/28 07:35:57;;;;;;;8.68;1.10;;;;;;;;;;4215543;33;20126;-83
2021/01/28 07:38:30;;;;;;;4.10;1.10;;;;;;;;;;4220654;34;20073;-85
2021/01/28 07:41:16;;;;;;;1.30;1.00;;;;;;;;;;4219080;33;20161;-84
2021/01/28 07:43:50;;;;;;;5.43;1.30;;;;;;;;;;4218478;34;20058;-83
2021/01/28 07:46:19;;;;;;;2.15;1.30;;;;;;;;;;4212685;34;20199;-83
2021/01/28 07:49:04;;;;;;;1.50;1.40;;;;;;;;;;4213811;33;20471;-84
2021/01/28 07:51:38;;;;;;;6.87;1.30;;;;;;;;;;4218823;34;20218;-83
2021/01/28 07:54:26;;;;;;;3.45;1.30;;;;;;;;;;4216239;33;20140;-84
2021/01/28 07:56:58;;;;;;;2.53;0.85;;;;;;;;;;4209373;33;20145;-83
2021/01/28 07:59:36;;;;;;;3.28;1.67;;;;;;;;;;4217421;34;20051;-83
2021/01/28 08:02:13;;;;;;;4.43;1.90;;;;;;;;;;4220514;34;20265;-84
2021/01/28 08:04:46;;;;;;;2.60;1.10;;;;;;;;;;4221853;33;20419;-84
2021/01/28 08:07:16;;;;;;;2.47;1.30;;;;;;;;;;4220483;33;20085;-83
2021/01/28 08:09:49;;;;;;;1.77;0.90;;;;;;;;;;4207310;33;20114;-84
2021/01/28 08:12:26;;;;;;;2.10;1.00;;;;;;;;;;4219698;33;20119;-83
2021/01/28 08:14:55;;;;;;;1.58;0.80;;;;;;;;;;4221671;33;20058;-85
2021/01/28 08:17:36;;;;;;;2.55;0.80;;;;;;;;;;4224767;33;20127;-85
2021/01/28 08:20:21;;;;;;;3.92;1.00;;;;;;;;;;4221668;34;20496;-85
2021/01/28 08:23:23;;;;;;;2.70;1.05;;;22.00;49.60;;;;;;4218119;33;20058;-85
2021/01/28 08:26:08;;;;;;;4.70;0.95;;;23.00;48.70;;;;;;4211259;34;20510;-85
2021/01/28 08:28:38;;;;;;;;;;;23.50;46.80;;;;;;4220712;33;20063;-85
2021/01/28 08:31:24;;;;;;;2.17;1.10;;;24.10;45.60;;;;;;4218190;33;19950;-86
2021/01/28 08:33:59;;;;;;;4.60;1.00;;;25.10;43.90;;;;;;4219172;33;20062;-86
2021/01/28 08:36:33;;;;;;;4.53;1.10;;;25.40;43.10;;;;;;4221501;34;20092;-85
2021/01/28 08:39:14;;;;;;;2.47;1.08;;;25.60;42.00;;;;;;4219501;33;20055;-86
2021/01/28 08:41:45;;;;;;;4.00;1.02;;;25.90;42.00;;;;;;4220769;33;20118;-85
2021/01/28 08:44:16;;;;;;;2.53;0.90;;;26.50;41.60;;;;;;4218793;33;20376;-85
2021/01/28 08:46:46;;;;;;;2.62;0.90;;;26.40;41.00;;;;;;4220180;33;20066;-86
2021/01/28 08:49:18;;;;;;;3.10;0.93;;;27.20;41.00;;;;;;4221439;33;20069;-85
2021/01/28 08:52:01;;;;;;;5.30;1.30;;;27.30;40.50;;;;;;4217274;34;20101;-86
2021/01/28 08:54:39;;;;;;;2.30;1.30;;;27.50;39.70;;;;;;4221994;34;20496;-86
2021/01/28 08:57:11;;;;;;;4.90;1.40;;;27.30;39.80;;;;;;4235471;33;20081;-85
2021/01/28 08:59:58;;;;;;;5.93;1.30;;;27.50;39.80;;;;;;4216395;33;20078;-83
2021/01/28 09:02:34;;;;;;;3.22;1.17;;;27.80;39.70;;;;;;4218298;33;20564;-82
2021/01/28 09:05:13;;;;;;;4.55;1.20;;;28.10;39.50;;;;;;4228551;33;20074;-84
2021/01/28 09:08:00;;;;;;;3.85;1.20;;;28.50;39.10;;;;;;4213377;33;20077;-83
2021/01/28 09:10:40;;;;;;;3.65;1.20;;;28.50;38.50;;;;;;4223860;33;20042;-83
2021/01/28 09:13:25;;;;;;;1.75;0.90;;;28.50;38.40;;;;;;4227936;33;20090;-83
2021/01/28 09:16:13;;;;;;;2.80;1.30;;;29.40;37.40;;;;;;4224643;33;20082;-83
2021/01/28 09:18:44;;;;;;;2.42;1.20;;;29.70;36.70;;;;;;4220403;33;20544;-83
2021/01/28 09:21:15;;;;;;;5.10;1.50;;;29.50;36.40;;;;;;4215972;33;20269;-82
2021/01/28 09:24:05;;;;;;;2.60;1.23;;;29.90;36.30;;;;;;4218552;33;20111;-84
2021/01/28 09:26:39;;;;;;;2.08;1.20;;;30.40;36.00;;;;;;4220734;33;20126;-83
2021/01/28 09:29:18;;;;;;;3.47;1.50;;;29.90;36.20;;;;;;4225167;33;20678;-84
2021/01/28 09:31:48;;;;;;;15.48;3.03;;;30.30;36.00;;;;;;4222408;33;20115;-84
2021/01/28 09:34:27;;;;;;;7.20;4.00;;;30.60;35.80;;;;;;4224581;34;20102;-83
2021/01/28 09:37:21;;;;;;;12.40;4.03;;;31.10;35.80;;;;;;4224434;33;20411;-84
2021/01/28 09:39:52;;;;;;;3.03;2.17;;;30.80;35.50;;;;;;4217095;34;20050;-84
2021/01/28 09:42:28;;;;;;;3.37;1.80;;;30.70;35.60;;;;;;4216483;34;20060;-83
2021/01/28 09:45:22;;;;;;;4.40;2.05;;;30.90;35.90;;;;;;4220040;33;20063;-84
2021/01/28 09:47:51;;;;;;;;;;;31.70;35.60;;;;;;4217753;33;20059;-84
2021/01/28 09:50:21;;;;;;;2.55;1.45;;;31.70;35.10;;;;;;4221951;33;20274;-83
2021/01/28 09:52:50;;;;;;;3.67;1.87;;;31.40;35.10;;;;;;4227144;33;20110;-83
2021/01/28 09:55:24;;;;;;;2.78;1.42;;;31.90;35.00;;;;;;4222517;33;20070;-84
2021/01/28 09:57:52;;;;;;;2.50;1.40;;;31.90;34.90;;;;;;4224958;34;20066;-83
2021/01/28 10:00:22;;;;;;;2.40;1.30;;;32.00;34.70;;;;;;4222096;34;20107;-84
2021/01/28 10:03:00;;;;;;;6.35;1.40;;;31.80;34.30;;;;;;4211134;34;20100;-84
2021/01/28 10:05:33;;;;;;;4.03;1.40;;;32.30;34.90;;;;;;4224666;34;20120;-83
2021/01/28 10:08:04;;;;;;;3.80;1.40;;;32.10;34.70;;;;;;4219744;34;20437;-84
2021/01/28 10:10:33;;;;;;;2.92;1.40;;;32.10;35.40;;;;;;4226320;34;20054;-83
2021/01/28 10:13:05;;;;;;;3.47;1.40;;;31.80;34.80;;;;;;4224391;33;20066;-83
2021/01/28 10:15:33;;;;;;;8.20;1.48;;;31.90;35.20;;;;;;4225076;34;20059;-84
2021/01/28 10:18:02;;;;;;;2.47;1.50;;;31.70;33.90;;;;;;4222905;33;20080;-84
2021/01/28 10:20:31;;;;;;;4.80;1.40;;;31.60;34.00;;;;;;4223219;33;20058;-83
2021/01/28 10:23:03;;;;;;;2.55;1.33;;;31.90;34.80;;;;;;4221800;34;20138;-84
2021/01/28 10:25:32;;;;;;;2.28;1.30;;;33.30;35.50;;;;;;4220646;34;20067;-84
2021/01/28 10:28:00;;;;;;;3.62;1.30;;;32.70;34.80;;;;;;4219323;33;20093;-84
2021/01/28 10:30:32;;;;;;;2.62;1.12;;;;;;;;;;4219663;33;20069;-83
2021/01/28 10:33:00;;;;;;;2.22;1.20;;;;;;;;;;4211726;34;20082;-83
2021/01/28 10:35:30;;;;;;;2.08;1.30;;;;;;;;;;4227238;34;20062;-83
2021/01/28 10:38:04;;;;;;;7.22;1.27;;;;;;;;;;4220930;33;20062;-83
2021/01/28 10:40:32;;;;;;;2.95;1.27;;;;;;;;;;4223958;33;20414;-83
2021/01/28 10:43:03;;;;;;;3.62;1.20;;;;;;;;;;4223465;34;20050;-83
2021/01/28 10:45:33;;;;;;;1.67;1.20;;;;;;;;;;4219690;34;20134;-84
2021/01/28 10:48:02;;;;;;;3.65;1.20;;;;;;;;;;4220113;33;20438;-84
2021/01/28 10:50:35;;;;;;;13.32;3.37;;;36.50;6.10;;;;;;4220826;34;20062;-83
2021/01/28 10:53:04;;;;;;;7.30;3.58;;;36.60;12.60;;;;;;4223139;33;20396;-83
2021/01/28 10:55:33;;;;;;;5.10;3.42;;;;;;;;;;4219765;34;20080;-84
2021/01/28 10:58:02;;;;;;;5.47;3.75;;;;;;;;;;4222459;34;20127;-84
2021/01/28 11:00:31;;;;;;;13.25;4.70;;;;;;;;;;4222661;34;20122;-84
2021/01/28 11:03:00;;;;;;;15.07;4.90;;;;;;;;;;4223776;33;20129;-83
2021/01/28 11:05:33;;;;;;;28.87;5.70;;;;;;;;;;4226015;33;20059;-83
2021/01/28 11:08:03;;;;;;;14.75;4.62;;;;;;;;;;4220481;33;20182;-83
2021/01/28 11:10:52;;;;;;;13.80;5.25;;;;;;;;;;4211656;33;20549;-84
2021/01/28 11:13:22;;;;;;;14.15;5.60;;;;;;;;;;4225736;33;20082;-83
2021/01/28 11:15:50;;;;;;;10.38;4.82;;;;;;;;;;4223643;33;20609;-83
2021/01/28 11:18:19;;;;;;;10.50;4.72;;;;;;;;;;4223498;33;20059;-84
2021/01/28 11:20:55;;;;;;;9.35;4.45;;;;;;;;;;4222391;33;20093;-84
2021/01/28 11:23:24;;;;;;;11.45;4.50;;;;;;;;;;4221350;34;20058;-84
2021/01/28 11:25:53;;;;;;;12.45;4.20;;;;;;;;;;4222583;34;20093;-83
2021/01/28 11:28:21;;;;;;;9.95;3.97;;;;;;;;;;4223432;33;20149;-84
2021/01/28 11:30:50;;;;;;;11.85;4.05;;;;;;;;;;4224486;34;20074;-83
2021/01/28 11:33:18;;;;;;;8.35;3.95;;;;;;;;;;4224937;33;20108;-84
2021/01/28 11:35:46;;;;;;;12.80;4.60;;;;;;;;;;4222034;33;20480;-83
2021/01/28 11:38:15;;;;;;;9.38;3.53;;;;;;;;;;4213745;33;20119;-84
2021/01/28 11:40:45;;;;;;;9.43;3.12;;;;;;;;;;4202806;34;20055;-83
2021/01/28 11:43:14;;;;;;;7.50;3.08;;;;;;;;;;4217511;33;20466;-84
2021/01/28 11:45:54;;;;;;;7.60;3.20;;;;;;;;;;4225797;34;20066;-83
2021/01/28 11:48:27;;;;;;;;;;;;;;;;;;4222025;34;20086;-83
2021/01/28 11:50:55;;;;;;;7.25;3.30;;;;;;;;;;4220060;33;20038;-84
2021/01/28 11:53:24;;;;;;;6.65;3.05;;;;;;;;;;4223875;34;20461;-84
2021/01/28 11:55:52;;;;;;;8.00;3.28;;;;;;;;;;4223853;34;20062;-85
2021/01/28 11:58:20;;;;;;;6.85;2.95;;;;;;;;;;4221662;34;20066;-85
2021/01/28 12:00:49;;;;;;;7.72;3.20;;;;;;;;;;4215596;34;20094;-85
2021/01/28 12:03:18;;;;;;;9.00;3.30;;;;;;;;;;4216387;34;20106;-84
2021/01/28 12:05:50;;;;;;;9.20;3.20;;;;;;;;;;4213645;34;20115;-83
2021/01/28 12:08:18;;;;;;;9.85;3.45;;;;;;;;;;4205438;34;20422;-84
2021/01/28 12:10:47;;;;;;;9.68;3.37;;;;;;;;;;4215864;34;20649;-84
2021/01/28 12:13:15;;;;;;;12.43;3.78;;;;;;;;;;4209675;34;20062;-83
2021/01/28 12:15:43;;;;;;;12.73;6.05;;;;;;;;;;4218543;34;20070;-83
2021/01/28 12:18:12;;;;;;;14.23;5.03;;;;;;;;;;4220443;34;20059;-84
2021/01/28 12:20:40;;;;;;;8.90;4.10;;;;;;;;;;4216327;34;20066;-83
2021/01/28 12:23:09;;;;;;;8.85;3.65;;;;;;;;;;4222750;33;20106;-83
2021/01/28 12:25:45;;;;;;;7.18;3.33;;;;;;;;;;4222808;34;20371;-83
2021/01/28 12:28:14;;;;;;;7.93;3.30;;;;;;;;;;4213707;34;20124;-83
2021/01/28 12:30:43;;;;;;;8.05;3.45;;;;;;;;;;4216747;34;20115;-83
2021/01/28 12:33:12;;;;;;;8.95;2.95;;;;;;;;;;4210605;34;20076;-84
2021/01/28 12:35:41;;;;;;;5.78;2.90;;;;;;;;;;4219987;33;20059;-84
2021/01/28 12:38:09;;;;;;;5.60;2.87;;;;;;;;;;4218216;33;20073;-84
2021/01/28 12:40:38;;;;;;;7.43;2.62;;;;;;;;;;4223647;34;20102;-83
2021/01/28 12:43:07;;;;;;;8.75;3.20;;;;;;;;;;4222863;33;20117;-83
2021/01/28 12:45:35;;;;;;;7.05;3.25;;;;;;;;;;4222797;33;20067;-83
2021/01/28 12:48:04;;;;;;;4.93;2.75;;;;;;;;;;4218147;33;20055;-84
2021/01/28 12:50:32;;;;;;;9.10;2.72;;;;;;;;;;4220326;33;20077;-84
2021/01/28 12:53:00;;;;;;;15.75;3.03;;;;;;;;;;4221004;34;20113;-83
2021/01/28 12:55:29;;;;;;;7.28;2.65;;;;;;;;;;4223213;34;20518;-83
2021/01/28 12:57:57;;;;;;;9.35;3.08;;;;;;;;;;4223528;34;20445;-83
2021/01/28 13:00:26;;;;;;;14.10;4.07;;;;;;;;;;4220878;33;20229;-85
2021/01/28 13:02:55;;;;;;;8.77;3.55;;;;;;;;;;4223476;33;20489;-85
2021/01/28 13:05:24;;;;;;;16.87;4.20;;;;;;;;;;4220694;34;20167;-85
2021/01/28 13:07:52;;;;;;;11.77;3.85;;;;;;;;;;4220589;34;20114;-85
2021/01/28 13:10:20;;;;;;;13.25;3.83;;;;;;;;;;4205922;34;20066;-85
2021/01/28 13:12:51;;;;;;;7.18;3.40;;;;;;;;;;4208195;33;20058;-85
2021/01/28 13:15:21;;;;;;;10.27;3.05;;;;;;;;;;4220956;34;20065;-85
2021/01/28 13:17:52;;;;;;;8.57;3.35;;;;;;;;;;4219737;34;20403;-85
2021/01/28 13:20:21;;;;;;;8.90;3.37;;;;;;;;;;4219787;34;20093;-85
2021/01/28 13:22:52;;;;;;;7.68;2.85;;;;;;;;;;4216707;34;20331;-85
2021/01/28 13:25:20;;;;;;;9.52;3.15;;;;;;;;;;4218753;34;20092;-85
2021/01/28 13:27:49;;;;;;;7.28;2.90;;;;;;;;;;4208324;34;20073;-85
2021/01/28 13:30:20;;;;;;;8.68;3.00;;;;;;;;;;4222684;34;20077;-85
2021/01/28 13:32:50;;;;;;;8.80;2.78;;;;;;;;;;4210910;34;20381;-85
2021/01/28 13:35:22;;;;;;;7.37;3.05;;;;;;;;;;4223497;34;20139;-85
2021/01/28 13:37:51;;;;;;;6.60;2.67;;;;;;;;;;4223130;33;20213;-85
2021/01/28 13:40:20;;;;;;;7.65;3.15;;;;;;;;;;4224398;34;20098;-84
2021/01/28 13:42:50;;;;;;;5.45;2.55;;;;;;;;;;4216552;34;20395;-85
2021/01/28 13:45:20;;;;;;;8.90;2.78;;;27.30;20.60;;;;;;4213028;34;20085;-85
2021/01/28 13:47:49;;;;;;;9.30;2.58;;;27.40;20.90;;;;;;4220804;34;20102;-85
2021/01/28 13:50:25;;;;;;;10.40;3.40;;;27.30;20.70;;;;;;4215575;33;20451;-86
2021/01/28 13:52:54;;;;;;;9.85;2.90;;;26.90;25.00;;;;;;4217311;33;20392;-85
2021/01/28 13:55:23;;;;;;;9.30;3.10;;;26.60;56.30;;;;;;4222196;33;20517;-85
2021/01/28 13:57:52;;;;;;;8.43;2.65;;;;;;;;;;4218091;33;22094;-85
2021/01/28 14:00:22;;;;;;;7.72;3.10;;;26.90;38.20;;;;;;4218448;33;20067;-85
2021/01/28 14:02:52;;;;;;;6.95;2.75;;;27.00;40.40;;;;;;4219233;33;20429;-86
2021/01/28 14:05:22;;;;;;;8.85;2.58;;;;;;;;;;4220406;33;20383;-85
2021/01/28 14:07:51;;;;;;;6.70;2.37;;;26.60;34.70;;;;;;4221644;33;20066;-85
2021/01/28 14:10:38;;;;;;;4.20;2.35;;;27.00;36.40;;;;;;4219269;33;20066;-85
2021/01/28 14:13:06;;;;;;;7.68;2.87;;;27.00;36.20;;;;;;4218662;33;20121;-85
2021/01/28 14:15:38;;;;;;;3.78;1.98;;;26.90;36.10;;;;;;4214849;33;20089;-85
2021/01/28 14:18:11;;;;;;;4.12;1.87;;;26.90;36.10;;;;;;4214287;33;20174;-84
2021/01/28 14:20:40;;;;;;;5.35;1.75;;;26.70;36.40;;;;;;4218120;33;20528;-86
2021/01/28 14:23:08;;;;;;;4.18;2.03;;;26.80;37.60;;;;;;4210200;34;20158;-85
2021/01/28 14:25:36;;;;;;;8.93;2.05;;;26.70;38.50;;;;;;4223075;34;20073;-85
2021/01/28 14:28:05;;;;;;;5.15;2.03;;;26.60;39.90;;;;;;4223728;34;20070;-85
2021/01/28 14:30:34;;;;;;;3.03;1.92;;;26.40;44.10;;;;;;4224793;34;20510;-85
2021/01/28 14:33:03;;;;;;;3.40;2.03;;;;;;;;;;4221655;34;20493;-85
2021/01/28 14:35:42;;;;;;;5.87;2.15;;;;;;;;;;4224654;34;20113;-85
2021/01/28 14:38:11;;;;;;;5.07;2.30;;;;;;;;;;4222518;34;20386;-85
2021/01/28 14:40:41;;;;;;;6.97;2.47;;;;;;;;;;4226980;34;20138;-85
2021/01/28 14:43:09;;;;;;;9.48;2.30;;;;;;;;;;4219932;34;20055;-85
2021/01/28 14:45:39;;;;;;;6.95;2.10;;;;;;;;;;4221226;34;20071;-85
2021/01/28 14:48:07;;;;;;;4.95;2.15;;;;;;;;;;4224439;34;20580;-86
2021/01/28 14:50:36;;;;;;;5.80;2.47;;;;;;;;;;4223063;34;20123;-85
2021/01/28 14:53:04;;;;;;;5.18;1.90;;;;;;;;;;4223184;34;20374;-84
2021/01/28 14:55:33;;;;;;;8.40;2.37;;;;;;;;;;4223751;34;20074;-85
2021/01/28 14:58:01;;;;;;;5.62;2.40;;;;;;;;;;4223298;34;20047;-85
2021/01/28 15:00:29;;;;;;;6.55;2.20;;;;;;;;;;4220427;34;20077;-85
2021/01/28 15:02:58;;;;;;;5.07;1.92;;;;;;;;;;4206511;34;20097;-86
2021/01/28 15:05:27;;;;;;;4.75;1.92;;;;;;;;;;4222686;33;20121;-85
2021/01/28 15:07:56;;;;;;;7.37;2.20;;;;;;;;;;4224558;33;20087;-85
2021/01/28 15:10:29;;;;;;;4.93;1.95;;;;;;;;;;4226184;33;20078;-85
2021/01/28 15:12:58;;;;;;;8.43;2.25;;;;;;;;;;4226645;33;20125;-85
2021/01/28 15:15:26;;;;;;;6.68;2.45;;;;;;;;;;4219866;33;20118;-85
2021/01/28 15:17:55;;;;;;;6.35;1.95;;;;;;;;;;4220417;33;20355;-85
2021/01/28 15:20:25;;;;;;;5.40;2.20;;;;;;;;;;4222305;34;20070;-85
2021/01/28 15:22:53;;;;;;;8.55;2.30;;;;;;;;;;4221501;33;20072;-85
2021/01/28 15:25:22;;;;;;;20.30;5.65;;;;;;;;;;4221434;34;20062;-85
2021/01/28 15:27:51;;;;;;;17.92;5.20;;;;;;;;;;4223073;34;20569;-85
2021/01/28 15:30:20;;;;;;;11.68;4.93;;;;;;;;;;4217947;34;20390;-85
2021/01/28 15:32:53;;;;;;;9.80;3.90;;;;;;;;;;4217032;34;20130;-84
2021/01/28 15:35:22;;;;;;;16.30;5.05;;;;;;;;;;4218973;33;20051;-84
2021/01/28 15:37:52;;;;;;;10.15;4.72;;;;;;;;;;4209026;34;20225;-85
2021/01/28 15:40:28;;;;;;;10.65;4.30;;;;;;;;;;4224883;34;20051;-85
2021/01/28 15:42:56;;;;;;;12.02;4.30;;;;;;;;;;4224170;34;20059;-85
2021/01/28 15:45:25;;;;;;;18.67;4.87;;;;;;;;;;4220566;34;20113;-85
2021/01/28 15:47:54;;;;;;;14.10;4.62;;;;;;;;;;4218218;33;20097;-85
2021/01/28 15:50:22;;;;;;;10.18;4.12;;;;;;;;;;4223707;34;20054;-85
2021/01/28 15:52:51;;;;;;;13.30;4.43;;;;;;;;;;4220402;34;20727;-85
2021/01/28 15:55:19;;;;;;;11.18;4.07;;;;;;;;;;4221617;34;20513;-85
2021/01/28 15:57:48;;;;;;;17.27;5.07;;;;;;;;;;4215234;34;20067;-84
2021/01/28 16:00:16;;;;;;;8.43;4.03;;;;;;;;;;4204911;34;20093;-85
2021/01/28 16:02:45;;;;;;;12.65;4.50;;;;;;;;;;4224317;34;20059;-85
2021/01/28 16:05:15;;;;;;;11.07;4.20;;;;;;;;;;4220206;34;20517;-84
2021/01/28 16:07:43;;;;;;;10.50;4.03;;;;;;;;;;4219828;33;20134;-85
2021/01/28 16:10:12;;;;;;;23.12;3.92;;;;;;;;;;4224925;34;20054;-85
2021/01/28 16:12:42;;;;;;;12.95;4.57;;;;;;;;;;4221667;34;20182;-85
2021/01/28 16:15:11;;;;;;;6.70;3.37;;;;;;;;;;4214814;34;20099;-86
2021/01/28 16:17:40;;;;;;;11.23;3.95;;;;;;;;;;4219893;34;20110;-85
2021/01/28 16:20:09;;;;;;;10.35;3.80;;;;;;;;;;4220335;33;20062;-85
2021/01/28 16:22:38;;;;;;;6.60;3.58;;;;;;;;;;4221492;34;20515;-85
2021/01/28 16:25:08;;;;;;;9.07;4.40;;;;;;;;;;4220763;34;20178;-85
2021/01/28 16:27:38;;;;;;;11.30;3.85;;;;;;;;;;4219627;33;20063;-85
2021/01/28 16:30:08;;;;;;;10.85;3.92;;;;;;;;;;4213963;34;20058;-85
2021/01/28 16:32:36;;;;;;;13.00;4.20;;;;;;;;;;4221506;34;20076;-85
2021/01/28 16:35:06;;;;;;;11.07;4.12;;;;;;;;;;4218239;34;20077;-85
2021/01/28 16:37:35;;;;;;;8.20;4.00;;;;;;;;;;4220304;34;20170;-84
2021/01/28 16:40:04;;;;;;;10.95;4.25;;;;;;;;;;4222712;34;20450;-84
2021/01/28 16:42:33;;;;;;;12.48;4.53;;;;;;;;;;4222817;34;20107;-85
2021/01/28 16:45:01;;;;;;;9.63;4.72;;;;;;;;;;4221804;34;20074;-85
2021/01/28 16:47:30;;;;;;;17.27;6.00;;;;;;;;;;4225410;34;20081;-86
2021/01/28 16:49:58;;;;;;;22.23;7.90;;;;;;;;;;4222416;34;20069;-85
2021/01/28 16:52:27;;;;;;;21.60;7.25;;;;;;;;;;4221493;33;20059;-84
2021/01/28 16:54:55;;;;;;;17.52;7.10;;;;;;;;;;4223424;34;20074;-85
2021/01/28 16:57:23;;;;;;;20.65;7.78;;;;;;;;;;4216714;34;20144;-85
2021/01/28 16:59:52;;;;;;;21.60;8.13;;;;;;;;;;4215959;34;20085;-85
2021/01/28 17:02:20;;;;;;;20.00;9.02;;;;;;;;;;4220286;34;20055;-85
2021/01/28 17:04:49;;;;;;;17.45;8.48;;;;;;;;;;4219185;34;20118;-84
2021/01/28 17:07:18;;;;;;;13.40;8.27;;;;;;;;;;4217560;34;20133;-84
2021/01/28 17:09:47;;;;;;;16.70;9.15;;;;;;;;;;4213673;34;20690;-84
2021/01/28 17:12:15;;;;;;;18.00;8.77;;;;;;;;;;4219543;34;20081;-84
2021/01/28 17:14:44;;;;;;;21.27;10.27;;;;;;;;;;4215094;34;20086;-84
2021/01/28 17:17:12;;;;;;;21.40;8.98;;;;;;;;;;4221857;34;20181;-84
2021/01/28 17:19:41;;;;;;;16.87;9.77;;;;;;;;;;4215305;34;20051;-84
2021/01/28 17:22:10;;;;;;;24.05;10.20;;;;;;;;;;4217689;34;20207;-84
2021/01/28 17:24:39;;;;;;;23.77;11.45;;;;;;;;;;4223001;34;20130;-84
2021/01/28 17:27:07;;;;;;;18.92;10.80;;;;;;;;;;4222441;34;20097;-84
2021/01/28 17:29:35;;;;;;;19.90;11.10;;;;;;;;;;4214968;33;20122;-84
2021/01/28 17:32:03;;;;;;;27.15;12.77;;;;;;;;;;4224586;34;20273;-84
2021/01/28 17:34:32;;;;;;;22.55;12.13;;;;;;;;;;4223255;34;20099;-85
2021/01/28 17:37:00;;;;;;;21.35;11.40;;;;;;;;;;4221960;34;20085;-85
2021/01/28 17:39:29;;;;;;;27.13;12.63;;;;;;;;;;4219518;33;20118;-85
2021/01/28 17:41:57;;;;;;;26.42;12.10;;;;;;;;;;4230268;33;20071;-84
2021/01/28 17:44:26;;;;;;;17.87;11.05;;;;;;;;;;4218002;33;20099;-84
2021/01/28 17:46:55;;;;;;;18.45;10.48;;;;;;;;;;4223702;33;20084;-84
2021/01/28 17:49:23;;;;;;;21.58;10.90;;;;;;;;;;4233186;33;20427;-84
2021/01/28 17:51:52;;;;;;;22.45;11.00;;;;;;;;;;4224636;34;20413;-84
2021/01/28 17:54:20;;;;;;;19.45;9.30;;;;;;;;;;4223547;34;20072;-84
2021/01/28 17:56:49;;;;;;;21.65;10.65;;;;;;;;;;4205329;34;20113;-84
2021/01/28 17:59:18;;;;;;;21.65;10.35;;;;;;;;;;4221532;33;20371;-84
2021/01/28 18:01:46;;;;;;;18.73;8.98;;;;;;;;;;4223100;33;20050;-85
2021/01/28 18:04:16;;;;;;;22.67;10.52;;;;;;;;;;4221180;34;20071;-85
2021/01/28 18:06:44;;;;;;;16.27;9.50;;;;;;;;;;4220484;33;20063;-85
2021/01/28 18:09:12;;;;;;;18.58;9.95;;;;;;;;;;4217033;33;20111;-85
2021/01/28 18:11:41;;;;;;;20.25;10.40;;;;;;;;;;4221988;33;20089;-84
2021/01/28 18:14:10;;;;;;;20.73;10.02;;;;;;;;;;4224971;34;20110;-85
2021/01/28 18:16:39;;;;;;;14.23;8.48;;;;;;;;;;4223821;34;20149;-84
2021/01/28 18:19:07;;;;;;;19.33;10.20;;;;;;;;;;4216403;33;20415;-84
2021/01/28 18:21:37;;;;;;;20.85;10.85;;;;;;;;;;4217194;33;20051;-84
2021/01/28 18:24:06;;;;;;;18.85;10.60;;;;;;;;;;4218922;33;20190;-85
2021/01/28 18:26:34;;;;;;;19.48;10.20;;;;;;;;;;4206823;34;20089;-84
2021/01/28 18:29:03;;;;;;;20.00;10.13;;;;;;;;;;4221958;33;20096;-84